sensor_id;sensor_type;location;lat;lon;timestamp;P1;durP1;ratioP1;P2;durP2;ratioP2
82292;SDS011;71892;14.836;105.234;2023-08-08T00:00:49;9.32;;;4.20;;
82292;SDS011;71892;14.836;105.234;2023-08-08T00:03:16;11.63;;;3.95;;
82292;SDS011;71892;14.836;105.234;2023-08-08T00:05:42;7.10;;;3.20;;
82292;SDS011;71892;14.836;105.234;2023-08-08T00:08:08;9.80;;;3.22;;
82292;SDS011;71892;14.836;105.234;2023-08-08T00:10:35;14.50;;;2.53;;
82292;SDS011;71892;14.836;105.234;2023-08-08T00:13:01;7.32;;;2.65;;
82292;SDS011;71892;14.836;105.234;2023-08-08T00:15:27;10.13;;;2.70;;
82292;SDS011;71892;14.836;105.234;2023-08-08T00:17:54;9.60;;;2.83;;
82292;SDS011;71892;14.836;105.234;2023-08-08T00:20:20;8.25;;;3.00;;
82292;SDS011;71892;14.836;105.234;2023-08-08T00:22:46;9.45;;;2.78;;
82292;SDS011;71892;14.836;105.234;2023-08-08T00:25:13;10.05;;;2.80;;
82292;SDS011;71892;14.836;105.234;2023-08-08T00:27:39;8.30;;;2.40;;
82292;SDS011;71892;14.836;105.234;2023-08-08T00:30:10;9.43;;;3.03;;
82292;SDS011;71892;14.836;105.234;2023-08-08T00:32:38;10.13;;;2.47;;
82292;SDS011;71892;14.836;105.234;2023-08-08T00:35:05;14.13;;;2.92;;
82292;SDS011;71892;14.836;105.234;2023-08-08T00:37:31;9.60;;;3.05;;
82292;SDS011;71892;14.836;105.234;2023-08-08T00:39:58;10.85;;;2.92;;
82292;SDS011;71892;14.836;105.234;2023-08-08T00:42:24;7.38;;;2.80;;
82292;SDS011;71892;14.836;105.234;2023-08-08T00:44:51;12.05;;;3.22;;
82292;SDS011;71892;14.836;105.234;2023-08-08T00:47:17;11.38;;;2.85;;
82292;SDS011;71892;14.836;105.234;2023-08-08T00:49:44;9.48;;;2.50;;
82292;SDS011;71892;14.836;105.234;2023-08-08T00:52:11;8.00;;;2.28;;
82292;SDS011;71892;14.836;105.234;2023-08-08T00:54:39;10.25;;;2.60;;
82292;SDS011;71892;14.836;105.234;2023-08-08T00:57:06;6.82;;;2.28;;
82292;SDS011;71892;14.836;105.234;2023-08-08T00:59:32;12.88;;;3.28;;
82292;SDS011;71892;14.836;105.234;2023-08-08T01:01:59;10.15;;;2.30;;
82292;SDS011;71892;14.836;105.234;2023-08-08T01:04:26;10.25;;;2.45;;
82292;SDS011;71892;14.836;105.234;2023-08-08T01:06:55;6.40;;;2.20;;
82292;SDS011;71892;14.836;105.234;2023-08-08T01:09:36;9.98;;;2.90;;
82292;SDS011;71892;14.836;105.234;2023-08-08T01:12:08;7.85;;;2.63;;
82292;SDS011;71892;14.836;105.234;2023-08-08T01:14:36;9.13;;;3.03;;
82292;SDS011;71892;14.836;105.234;2023-08-08T01:17:04;6.32;;;2.35;;
82292;SDS011;71892;14.836;105.234;2023-08-08T01:19:32;9.45;;;2.75;;
82292;SDS011;71892;14.836;105.234;2023-08-08T01:22:04;8.35;;;2.63;;
82292;SDS011;71892;14.836;105.234;2023-08-08T01:24:32;14.95;;;2.88;;
82292;SDS011;71892;14.836;105.234;2023-08-08T01:27:02;7.55;;;2.38;;
82292;SDS011;71892;14.836;105.234;2023-08-08T01:31:56;9.05;;;2.97;;
82292;SDS011;71892;14.836;105.234;2023-08-08T01:34:23;15.57;;;2.80;;
82292;SDS011;71892;14.836;105.234;2023-08-08T01:36:56;10.05;;;2.63;;
82292;SDS011;71892;14.836;105.234;2023-08-08T01:39:27;11.23;;;2.60;;
82292;SDS011;71892;14.836;105.234;2023-08-08T01:41:56;9.20;;;2.75;;
82292;SDS011;71892;14.836;105.234;2023-08-08T01:44:25;14.50;;;3.35;;
82292;SDS011;71892;14.836;105.234;2023-08-08T01:46:54;8.63;;;2.13;;
82292;SDS011;71892;14.836;105.234;2023-08-08T01:49:20;8.43;;;2.40;;
82292;SDS011;71892;14.836;105.234;2023-08-08T01:51:47;9.75;;;2.33;;
82292;SDS011;71892;14.836;105.234;2023-08-08T01:54:13;9.25;;;2.72;;
82292;SDS011;71892;14.836;105.234;2023-08-08T01:56:40;16.15;;;2.80;;
82292;SDS011;71892;14.836;105.234;2023-08-08T01:59:06;7.80;;;2.05;;
82292;SDS011;71892;14.836;105.234;2023-08-08T02:01:32;9.32;;;2.50;;
82292;SDS011;71892;14.836;105.234;2023-08-08T02:03:59;11.68;;;2.50;;
82292;SDS011;71892;14.836;105.234;2023-08-08T02:06:25;8.80;;;3.03;;
82292;SDS011;71892;14.836;105.234;2023-08-08T02:08:51;7.57;;;2.10;;
82292;SDS011;71892;14.836;105.234;2023-08-08T02:11:18;10.30;;;2.95;;
82292;SDS011;71892;14.836;105.234;2023-08-08T02:13:44;10.40;;;2.90;;
82292;SDS011;71892;14.836;105.234;2023-08-08T02:16:10;11.65;;;3.08;;
82292;SDS011;71892;14.836;105.234;2023-08-08T02:18:37;9.05;;;2.67;;
82292;SDS011;71892;14.836;105.234;2023-08-08T02:23:33;11.07;;;3.28;;
82292;SDS011;71892;14.836;105.234;2023-08-08T02:25:59;10.60;;;2.92;;
82292;SDS011;71892;14.836;105.234;2023-08-08T02:28:26;7.82;;;2.78;;
82292;SDS011;71892;14.836;105.234;2023-08-08T02:30:53;8.88;;;3.22;;
82292;SDS011;71892;14.836;105.234;2023-08-08T02:33:20;8.43;;;2.88;;
82292;SDS011;71892;14.836;105.234;2023-08-08T02:35:46;9.40;;;2.83;;
82292;SDS011;71892;14.836;105.234;2023-08-08T02:38:13;10.02;;;2.85;;
82292;SDS011;71892;14.836;105.234;2023-08-08T02:40:39;11.10;;;3.20;;
82292;SDS011;71892;14.836;105.234;2023-08-08T02:43:05;10.05;;;3.10;;
82292;SDS011;71892;14.836;105.234;2023-08-08T02:45:32;12.18;;;3.00;;
82292;SDS011;71892;14.836;105.234;2023-08-08T02:47:58;11.38;;;3.63;;
82292;SDS011;71892;14.836;105.234;2023-08-08T02:50:24;9.77;;;3.00;;
82292;SDS011;71892;14.836;105.234;2023-08-08T02:52:50;12.57;;;3.47;;
82292;SDS011;71892;14.836;105.234;2023-08-08T02:55:17;8.48;;;2.80;;
82292;SDS011;71892;14.836;105.234;2023-08-08T02:57:43;11.75;;;3.28;;
82292;SDS011;71892;14.836;105.234;2023-08-08T03:00:10;8.05;;;3.17;;
82292;SDS011;71892;14.836;105.234;2023-08-08T03:02:37;12.90;;;2.67;;
82292;SDS011;71892;14.836;105.234;2023-08-08T03:05:03;9.80;;;2.97;;
82292;SDS011;71892;14.836;105.234;2023-08-08T03:07:31;10.77;;;3.08;;
82292;SDS011;71892;14.836;105.234;2023-08-08T03:09:57;9.25;;;3.17;;
82292;SDS011;71892;14.836;105.234;2023-08-08T03:12:23;8.48;;;2.90;;
82292;SDS011;71892;14.836;105.234;2023-08-08T03:14:50;9.45;;;3.17;;
82292;SDS011;71892;14.836;105.234;2023-08-08T03:17:16;11.05;;;3.22;;
82292;SDS011;71892;14.836;105.234;2023-08-08T03:19:43;8.40;;;3.17;;
82292;SDS011;71892;14.836;105.234;2023-08-08T03:22:09;7.88;;;2.95;;
82292;SDS011;71892;14.836;105.234;2023-08-08T03:24:35;9.63;;;2.83;;
82292;SDS011;71892;14.836;105.234;2023-08-08T03:27:02;10.05;;;2.53;;
82292;SDS011;71892;14.836;105.234;2023-08-08T03:29:28;9.10;;;3.17;;
82292;SDS011;71892;14.836;105.234;2023-08-08T03:31:55;11.07;;;3.15;;
82292;SDS011;71892;14.836;105.234;2023-08-08T03:34:21;9.60;;;3.15;;
82292;SDS011;71892;14.836;105.234;2023-08-08T03:36:48;9.00;;;3.33;;
82292;SDS011;71892;14.836;105.234;2023-08-08T03:39:14;8.50;;;2.85;;
82292;SDS011;71892;14.836;105.234;2023-08-08T03:41:40;8.90;;;3.28;;
82292;SDS011;71892;14.836;105.234;2023-08-08T03:44:07;9.13;;;3.45;;
82292;SDS011;71892;14.836;105.234;2023-08-08T03:46:33;10.93;;;3.13;;
82292;SDS011;71892;14.836;105.234;2023-08-08T03:49:00;10.50;;;3.50;;
82292;SDS011;71892;14.836;105.234;2023-08-08T03:51:26;11.05;;;3.95;;
82292;SDS011;71892;14.836;105.234;2023-08-08T03:53:52;9.38;;;2.85;;
82292;SDS011;71892;14.836;105.234;2023-08-08T03:56:19;10.05;;;3.15;;
82292;SDS011;71892;14.836;105.234;2023-08-08T03:58:45;6.10;;;2.80;;
82292;SDS011;71892;14.836;105.234;2023-08-08T04:01:11;8.20;;;2.85;;
82292;SDS011;71892;14.836;105.234;2023-08-08T04:03:38;10.70;;;2.70;;
82292;SDS011;71892;14.836;105.234;2023-08-08T04:06:04;9.18;;;2.75;;
82292;SDS011;71892;14.836;105.234;2023-08-08T04:08:30;9.15;;;2.83;;
82292;SDS011;71892;14.836;105.234;2023-08-08T04:10:57;11.18;;;3.35;;
82292;SDS011;71892;14.836;105.234;2023-08-08T04:13:24;12.57;;;3.38;;
82292;SDS011;71892;14.836;105.234;2023-08-08T04:15:50;9.00;;;2.60;;
82292;SDS011;71892;14.836;105.234;2023-08-08T04:18:19;7.15;;;2.92;;
82292;SDS011;71892;14.836;105.234;2023-08-08T04:20:46;8.82;;;3.20;;
82292;SDS011;71892;14.836;105.234;2023-08-08T04:23:13;9.90;;;3.50;;
82292;SDS011;71892;14.836;105.234;2023-08-08T04:25:39;11.63;;;3.83;;
82292;SDS011;71892;14.836;105.234;2023-08-08T04:28:06;9.77;;;3.70;;
82292;SDS011;71892;14.836;105.234;2023-08-08T04:30:32;9.48;;;2.95;;
82292;SDS011;71892;14.836;105.234;2023-08-08T04:32:58;9.55;;;3.13;;
82292;SDS011;71892;14.836;105.234;2023-08-08T04:35:25;9.27;;;2.83;;
82292;SDS011;71892;14.836;105.234;2023-08-08T04:37:51;14.20;;;3.42;;
82292;SDS011;71892;14.836;105.234;2023-08-08T04:40:17;10.27;;;3.50;;
82292;SDS011;71892;14.836;105.234;2023-08-08T04:42:44;10.35;;;2.90;;
82292;SDS011;71892;14.836;105.234;2023-08-08T04:45:10;11.18;;;3.33;;
82292;SDS011;71892;14.836;105.234;2023-08-08T04:47:36;10.60;;;3.28;;
82292;SDS011;71892;14.836;105.234;2023-08-08T04:50:03;8.35;;;3.78;;
82292;SDS011;71892;14.836;105.234;2023-08-08T04:52:29;12.85;;;3.40;;
82292;SDS011;71892;14.836;105.234;2023-08-08T04:54:55;13.32;;;3.22;;
82292;SDS011;71892;14.836;105.234;2023-08-08T04:57:22;11.55;;;3.13;;
82292;SDS011;71892;14.836;105.234;2023-08-08T04:59:48;8.20;;;3.20;;
82292;SDS011;71892;14.836;105.234;2023-08-08T05:02:14;13.00;;;3.85;;
82292;SDS011;71892;14.836;105.234;2023-08-08T05:04:41;9.50;;;3.38;;
82292;SDS011;71892;14.836;105.234;2023-08-08T05:07:08;9.55;;;3.00;;
82292;SDS011;71892;14.836;105.234;2023-08-08T05:09:34;11.40;;;4.57;;
82292;SDS011;71892;14.836;105.234;2023-08-08T05:12:00;8.85;;;2.88;;
82292;SDS011;71892;14.836;105.234;2023-08-08T05:14:27;10.55;;;3.92;;
82292;SDS011;71892;14.836;105.234;2023-08-08T05:16:53;10.98;;;3.03;;
82292;SDS011;71892;14.836;105.234;2023-08-08T05:19:20;5.30;;;2.22;;
82292;SDS011;71892;14.836;105.234;2023-08-08T05:21:46;9.43;;;3.40;;
82292;SDS011;71892;14.836;105.234;2023-08-08T05:24:12;6.22;;;2.85;;
82292;SDS011;71892;14.836;105.234;2023-08-08T05:26:39;9.60;;;3.53;;
82292;SDS011;71892;14.836;105.234;2023-08-08T05:29:05;9.20;;;3.35;;
82292;SDS011;71892;14.836;105.234;2023-08-08T05:31:31;10.63;;;3.13;;
82292;SDS011;71892;14.836;105.234;2023-08-08T05:33:58;8.27;;;3.20;;
82292;SDS011;71892;14.836;105.234;2023-08-08T05:36:24;10.10;;;3.45;;
82292;SDS011;71892;14.836;105.234;2023-08-08T05:38:50;11.68;;;3.78;;
82292;SDS011;71892;14.836;105.234;2023-08-08T05:41:16;10.32;;;3.50;;
82292;SDS011;71892;14.836;105.234;2023-08-08T05:43:43;12.38;;;4.00;;
82292;SDS011;71892;14.836;105.234;2023-08-08T05:46:09;9.95;;;4.15;;
82292;SDS011;71892;14.836;105.234;2023-08-08T05:48:35;13.77;;;3.83;;
82292;SDS011;71892;14.836;105.234;2023-08-08T05:51:02;10.90;;;3.88;;
82292;SDS011;71892;14.836;105.234;2023-08-08T05:53:30;11.77;;;3.42;;
82292;SDS011;71892;14.836;105.234;2023-08-08T05:55:57;17.70;;;6.28;;
82292;SDS011;71892;14.836;105.234;2023-08-08T05:58:24;12.90;;;3.35;;
82292;SDS011;71892;14.836;105.234;2023-08-08T06:00:50;9.88;;;3.53;;
82292;SDS011;71892;14.836;105.234;2023-08-08T06:03:17;10.02;;;3.20;;
82292;SDS011;71892;14.836;105.234;2023-08-08T06:05:43;8.93;;;3.03;;
82292;SDS011;71892;14.836;105.234;2023-08-08T06:08:10;21.58;;;5.18;;
82292;SDS011;71892;14.836;105.234;2023-08-08T06:10:37;10.43;;;3.42;;
82292;SDS011;71892;14.836;105.234;2023-08-08T06:13:04;12.75;;;4.35;;
82292;SDS011;71892;14.836;105.234;2023-08-08T06:15:30;10.82;;;3.70;;
82292;SDS011;71892;14.836;105.234;2023-08-08T06:17:57;13.45;;;3.30;;
82292;SDS011;71892;14.836;105.234;2023-08-08T06:20:23;9.70;;;3.50;;
82292;SDS011;71892;14.836;105.234;2023-08-08T06:22:49;12.98;;;3.60;;
82292;SDS011;71892;14.836;105.234;2023-08-08T06:25:16;11.30;;;3.25;;
82292;SDS011;71892;14.836;105.234;2023-08-08T06:27:42;10.48;;;3.20;;
82292;SDS011;71892;14.836;105.234;2023-08-08T06:30:08;8.98;;;3.42;;
82292;SDS011;71892;14.836;105.234;2023-08-08T06:32:35;13.27;;;3.83;;
82292;SDS011;71892;14.836;105.234;2023-08-08T06:35:01;10.00;;;3.35;;
82292;SDS011;71892;14.836;105.234;2023-08-08T06:37:28;8.82;;;3.85;;
82292;SDS011;71892;14.836;105.234;2023-08-08T06:39:54;10.15;;;3.33;;
82292;SDS011;71892;14.836;105.234;2023-08-08T06:42:21;8.90;;;2.75;;
82292;SDS011;71892;14.836;105.234;2023-08-08T06:44:47;9.07;;;2.55;;
82292;SDS011;71892;14.836;105.234;2023-08-08T06:47:14;9.65;;;3.50;;
82292;SDS011;71892;14.836;105.234;2023-08-08T06:49:40;11.05;;;3.03;;
82292;SDS011;71892;14.836;105.234;2023-08-08T06:52:06;8.40;;;3.35;;
82292;SDS011;71892;14.836;105.234;2023-08-08T06:54:34;8.02;;;3.10;;
82292;SDS011;71892;14.836;105.234;2023-08-08T06:57:00;10.70;;;4.47;;
82292;SDS011;71892;14.836;105.234;2023-08-08T06:59:27;11.32;;;3.60;;
82292;SDS011;71892;14.836;105.234;2023-08-08T07:01:54;9.88;;;3.63;;
82292;SDS011;71892;14.836;105.234;2023-08-08T07:04:21;9.60;;;3.72;;
82292;SDS011;71892;14.836;105.234;2023-08-08T07:06:48;10.88;;;3.58;;
82292;SDS011;71892;14.836;105.234;2023-08-08T07:09:14;10.07;;;4.00;;
82292;SDS011;71892;14.836;105.234;2023-08-08T07:11:40;9.70;;;3.17;;
82292;SDS011;71892;14.836;105.234;2023-08-08T07:14:07;13.07;;;3.50;;
82292;SDS011;71892;14.836;105.234;2023-08-08T07:16:33;13.77;;;2.92;;
82292;SDS011;71892;14.836;105.234;2023-08-08T07:18:59;12.70;;;3.10;;
82292;SDS011;71892;14.836;105.234;2023-08-08T07:21:26;7.53;;;3.22;;
82292;SDS011;71892;14.836;105.234;2023-08-08T07:23:52;11.32;;;3.17;;
82292;SDS011;71892;14.836;105.234;2023-08-08T07:26:18;10.82;;;3.20;;
82292;SDS011;71892;14.836;105.234;2023-08-08T07:28:44;14.00;;;3.15;;
82292;SDS011;71892;14.836;105.234;2023-08-08T07:31:11;9.30;;;2.65;;
82292;SDS011;71892;14.836;105.234;2023-08-08T07:33:37;11.25;;;3.47;;
82292;SDS011;71892;14.836;105.234;2023-08-08T07:36:03;7.88;;;2.92;;
82292;SDS011;71892;14.836;105.234;2023-08-08T07:38:30;8.75;;;2.70;;
82292;SDS011;71892;14.836;105.234;2023-08-08T07:40:58;7.53;;;3.22;;
82292;SDS011;71892;14.836;105.234;2023-08-08T07:43:24;9.75;;;3.10;;
82292;SDS011;71892;14.836;105.234;2023-08-08T07:45:52;8.07;;;3.30;;
82292;SDS011;71892;14.836;105.234;2023-08-08T07:48:18;10.52;;;3.58;;
82292;SDS011;71892;14.836;105.234;2023-08-08T07:50:44;11.43;;;3.00;;
82292;SDS011;71892;14.836;105.234;2023-08-08T07:53:10;12.20;;;3.35;;
82292;SDS011;71892;14.836;105.234;2023-08-08T07:55:37;12.00;;;3.53;;
82292;SDS011;71892;14.836;105.234;2023-08-08T07:58:03;12.65;;;3.10;;
82292;SDS011;71892;14.836;105.234;2023-08-08T08:00:30;9.60;;;3.83;;
82292;SDS011;71892;14.836;105.234;2023-08-08T08:02:56;10.88;;;3.75;;
82292;SDS011;71892;14.836;105.234;2023-08-08T08:05:22;14.07;;;4.53;;
82292;SDS011;71892;14.836;105.234;2023-08-08T08:07:49;12.15;;;4.00;;
82292;SDS011;71892;14.836;105.234;2023-08-08T08:10:15;10.35;;;3.60;;
82292;SDS011;71892;14.836;105.234;2023-08-08T08:12:42;11.63;;;4.55;;
82292;SDS011;71892;14.836;105.234;2023-08-08T08:15:08;10.15;;;4.28;;
82292;SDS011;71892;14.836;105.234;2023-08-08T08:17:36;12.88;;;3.47;;
82292;SDS011;71892;14.836;105.234;2023-08-08T08:20:03;8.77;;;3.88;;
82292;SDS011;71892;14.836;105.234;2023-08-08T08:22:31;10.15;;;3.75;;
82292;SDS011;71892;14.836;105.234;2023-08-08T08:24:58;9.07;;;2.90;;
82292;SDS011;71892;14.836;105.234;2023-08-08T08:27:24;11.50;;;3.55;;
82292;SDS011;71892;14.836;105.234;2023-08-08T08:29:50;10.55;;;4.05;;
82292;SDS011;71892;14.836;105.234;2023-08-08T08:32:17;12.23;;;4.03;;
82292;SDS011;71892;14.836;105.234;2023-08-08T08:34:43;9.70;;;3.83;;
82292;SDS011;71892;14.836;105.234;2023-08-08T08:37:09;7.95;;;2.83;;
82292;SDS011;71892;14.836;105.234;2023-08-08T08:39:36;5.18;;;1.88;;
82292;SDS011;71892;14.836;105.234;2023-08-08T08:42:02;7.95;;;2.75;;
82292;SDS011;71892;14.836;105.234;2023-08-08T08:44:30;8.80;;;3.05;;
82292;SDS011;71892;14.836;105.234;2023-08-08T08:47:01;5.88;;;2.40;;
82292;SDS011;71892;14.836;105.234;2023-08-08T08:49:32;5.43;;;3.03;;
82292;SDS011;71892;14.836;105.234;2023-08-08T08:52:00;7.82;;;3.53;;
82292;SDS011;71892;14.836;105.234;2023-08-08T08:54:27;6.88;;;3.20;;
82292;SDS011;71892;14.836;105.234;2023-08-08T08:56:55;7.10;;;3.17;;
82292;SDS011;71892;14.836;105.234;2023-08-08T08:59:22;11.20;;;3.85;;
82292;SDS011;71892;14.836;105.234;2023-08-08T09:01:49;10.50;;;4.38;;
82292;SDS011;71892;14.836;105.234;2023-08-08T09:04:18;12.45;;;4.45;;
82292;SDS011;71892;14.836;105.234;2023-08-08T09:06:46;10.18;;;4.55;;
82292;SDS011;71892;14.836;105.234;2023-08-08T09:09:13;9.30;;;3.83;;
82292;SDS011;71892;14.836;105.234;2023-08-08T09:11:50;9.50;;;4.15;;
82292;SDS011;71892;14.836;105.234;2023-08-08T09:14:21;13.30;;;4.88;;
82292;SDS011;71892;14.836;105.234;2023-08-08T09:16:49;11.10;;;4.97;;
82292;SDS011;71892;14.836;105.234;2023-08-08T09:19:19;9.50;;;4.95;;
82292;SDS011;71892;14.836;105.234;2023-08-08T09:21:47;13.80;;;4.72;;
82292;SDS011;71892;14.836;105.234;2023-08-08T09:24:14;8.50;;;3.70;;
82292;SDS011;71892;14.836;105.234;2023-08-08T09:26:41;9.60;;;3.38;;
82292;SDS011;71892;14.836;105.234;2023-08-08T09:29:08;8.63;;;3.60;;
82292;SDS011;71892;14.836;105.234;2023-08-08T09:31:35;10.40;;;3.72;;
82292;SDS011;71892;14.836;105.234;2023-08-08T09:34:03;9.73;;;3.67;;
82292;SDS011;71892;14.836;105.234;2023-08-08T09:36:30;13.05;;;3.72;;
82292;SDS011;71892;14.836;105.234;2023-08-08T09:38:56;10.73;;;3.40;;
82292;SDS011;71892;14.836;105.234;2023-08-08T09:41:23;6.60;;;3.30;;
82292;SDS011;71892;14.836;105.234;2023-08-08T09:43:50;11.07;;;3.63;;
82292;SDS011;71892;14.836;105.234;2023-08-08T09:46:21;11.45;;;3.88;;
82292;SDS011;71892;14.836;105.234;2023-08-08T09:48:48;10.75;;;3.97;;
82292;SDS011;71892;14.836;105.234;2023-08-08T09:51:14;10.07;;;3.67;;
82292;SDS011;71892;14.836;105.234;2023-08-08T09:53:42;8.73;;;3.72;;
82292;SDS011;71892;14.836;105.234;2023-08-08T09:56:09;13.75;;;4.50;;
82292;SDS011;71892;14.836;105.234;2023-08-08T09:58:36;7.63;;;3.78;;
82292;SDS011;71892;14.836;105.234;2023-08-08T10:01:02;10.20;;;3.72;;
82292;SDS011;71892;14.836;105.234;2023-08-08T10:03:30;9.77;;;3.92;;
82292;SDS011;71892;14.836;105.234;2023-08-08T10:05:58;10.55;;;3.28;;
82292;SDS011;71892;14.836;105.234;2023-08-08T10:08:24;14.88;;;4.40;;
82292;SDS011;71892;14.836;105.234;2023-08-08T10:10:50;9.98;;;3.83;;
82292;SDS011;71892;14.836;105.234;2023-08-08T10:13:24;10.93;;;4.25;;
82292;SDS011;71892;14.836;105.234;2023-08-08T10:15:52;12.35;;;4.43;;
82292;SDS011;71892;14.836;105.234;2023-08-08T10:18:23;8.77;;;3.70;;
82292;SDS011;71892;14.836;105.234;2023-08-08T10:20:50;11.98;;;4.45;;
82292;SDS011;71892;14.836;105.234;2023-08-08T10:23:22;8.93;;;3.75;;
82292;SDS011;71892;14.836;105.234;2023-08-08T10:25:50;8.20;;;3.63;;
82292;SDS011;71892;14.836;105.234;2023-08-08T10:28:19;8.30;;;3.67;;
82292;SDS011;71892;14.836;105.234;2023-08-08T10:30:47;13.98;;;5.10;;
82292;SDS011;71892;14.836;105.234;2023-08-08T10:33:20;10.35;;;4.38;;
82292;SDS011;71892;14.836;105.234;2023-08-08T10:35:53;10.98;;;3.92;;
82292;SDS011;71892;14.836;105.234;2023-08-08T10:38:30;13.68;;;4.45;;
82292;SDS011;71892;14.836;105.234;2023-08-08T10:41:17;13.43;;;4.15;;
82292;SDS011;71892;14.836;105.234;2023-08-08T10:43:49;14.65;;;4.40;;
82292;SDS011;71892;14.836;105.234;2023-08-08T10:46:24;12.05;;;4.47;;
82292;SDS011;71892;14.836;105.234;2023-08-08T10:48:55;12.63;;;4.22;;
82292;SDS011;71892;14.836;105.234;2023-08-08T10:51:37;10.40;;;3.97;;
82292;SDS011;71892;14.836;105.234;2023-08-08T10:54:26;12.40;;;4.88;;
82292;SDS011;71892;14.836;105.234;2023-08-08T10:56:57;13.25;;;4.75;;
82292;SDS011;71892;14.836;105.234;2023-08-08T10:59:25;11.40;;;5.15;;
82292;SDS011;71892;14.836;105.234;2023-08-08T11:02:04;12.68;;;4.15;;
82292;SDS011;71892;14.836;105.234;2023-08-08T11:04:31;15.43;;;5.18;;
82292;SDS011;71892;14.836;105.234;2023-08-08T11:07:00;12.02;;;5.30;;
82292;SDS011;71892;14.836;105.234;2023-08-08T11:09:26;28.15;;;11.50;;
82292;SDS011;71892;14.836;105.234;2023-08-08T11:11:53;25.55;;;11.60;;
82292;SDS011;71892;14.836;105.234;2023-08-08T11:14:20;22.05;;;10.00;;
82292;SDS011;71892;14.836;105.234;2023-08-08T11:16:48;35.50;;;12.02;;
82292;SDS011;71892;14.836;105.234;2023-08-08T11:19:16;28.10;;;12.98;;
82292;SDS011;71892;14.836;105.234;2023-08-08T11:21:44;25.00;;;12.13;;
82292;SDS011;71892;14.836;105.234;2023-08-08T11:24:12;23.95;;;10.77;;
82292;SDS011;71892;14.836;105.234;2023-08-08T11:26:39;19.42;;;9.05;;
82292;SDS011;71892;14.836;105.234;2023-08-08T11:29:07;11.23;;;6.07;;
82292;SDS011;71892;14.836;105.234;2023-08-08T11:31:34;11.40;;;5.25;;
82292;SDS011;71892;14.836;105.234;2023-08-08T11:34:00;12.43;;;4.85;;
82292;SDS011;71892;14.836;105.234;2023-08-08T11:36:34;10.45;;;4.93;;
82292;SDS011;71892;14.836;105.234;2023-08-08T11:39:01;13.73;;;5.90;;
82292;SDS011;71892;14.836;105.234;2023-08-08T11:41:36;11.95;;;5.68;;
82292;SDS011;71892;14.836;105.234;2023-08-08T11:44:03;11.52;;;5.32;;
82292;SDS011;71892;14.836;105.234;2023-08-08T11:46:30;17.25;;;10.20;;
82292;SDS011;71892;14.836;105.234;2023-08-08T11:49:05;20.73;;;11.93;;
82292;SDS011;71892;14.836;105.234;2023-08-08T11:51:33;20.65;;;12.20;;
82292;SDS011;71892;14.836;105.234;2023-08-08T11:54:01;17.92;;;9.52;;
82292;SDS011;71892;14.836;105.234;2023-08-08T11:56:35;18.73;;;10.48;;
82292;SDS011;71892;14.836;105.234;2023-08-08T11:59:02;15.57;;;8.77;;
82292;SDS011;71892;14.836;105.234;2023-08-08T12:01:31;17.58;;;7.18;;
82292;SDS011;71892;14.836;105.234;2023-08-08T12:04:03;16.25;;;9.07;;
82292;SDS011;71892;14.836;105.234;2023-08-08T12:06:32;16.05;;;7.18;;
82292;SDS011;71892;14.836;105.234;2023-08-08T12:09:00;14.18;;;7.07;;
82292;SDS011;71892;14.836;105.234;2023-08-08T12:11:28;29.85;;;15.88;;
82292;SDS011;71892;14.836;105.234;2023-08-08T12:13:59;34.05;;;21.88;;
82292;SDS011;71892;14.836;105.234;2023-08-08T12:16:27;38.03;;;25.40;;
82292;SDS011;71892;14.836;105.234;2023-08-08T12:18:59;46.00;;;25.23;;
82292;SDS011;71892;14.836;105.234;2023-08-08T12:21:28;25.50;;;14.02;;
82292;SDS011;71892;14.836;105.234;2023-08-08T12:23:54;27.10;;;13.20;;
82292;SDS011;71892;14.836;105.234;2023-08-08T12:26:20;20.52;;;11.32;;
82292;SDS011;71892;14.836;105.234;2023-08-08T12:28:47;20.67;;;11.07;;
82292;SDS011;71892;14.836;105.234;2023-08-08T12:31:13;23.52;;;12.23;;
82292;SDS011;71892;14.836;105.234;2023-08-08T12:33:39;22.17;;;11.43;;
82292;SDS011;71892;14.836;105.234;2023-08-08T12:36:05;21.02;;;10.93;;
82292;SDS011;71892;14.836;105.234;2023-08-08T12:38:32;21.85;;;11.77;;
82292;SDS011;71892;14.836;105.234;2023-08-08T12:41:00;19.23;;;10.30;;
82292;SDS011;71892;14.836;105.234;2023-08-08T12:43:27;20.80;;;10.73;;
82292;SDS011;71892;14.836;105.234;2023-08-08T12:45:54;20.95;;;9.15;;
82292;SDS011;71892;14.836;105.234;2023-08-08T12:48:21;17.38;;;9.15;;
82292;SDS011;71892;14.836;105.234;2023-08-08T12:50:47;14.52;;;8.13;;
82292;SDS011;71892;14.836;105.234;2023-08-08T12:53:13;22.55;;;9.80;;
82292;SDS011;71892;14.836;105.234;2023-08-08T12:55:40;24.45;;;10.45;;
82292;SDS011;71892;14.836;105.234;2023-08-08T12:58:06;19.48;;;9.50;;
82292;SDS011;71892;14.836;105.234;2023-08-08T13:00:32;18.92;;;8.52;;
82292;SDS011;71892;14.836;105.234;2023-08-08T13:02:59;22.55;;;9.65;;
82292;SDS011;71892;14.836;105.234;2023-08-08T13:05:25;19.42;;;8.85;;
82292;SDS011;71892;14.836;105.234;2023-08-08T13:07:51;26.05;;;13.63;;
82292;SDS011;71892;14.836;105.234;2023-08-08T13:10:18;21.40;;;10.52;;
82292;SDS011;71892;14.836;105.234;2023-08-08T13:12:46;22.95;;;8.93;;
82292;SDS011;71892;14.836;105.234;2023-08-08T13:15:12;16.08;;;8.18;;
82292;SDS011;71892;14.836;105.234;2023-08-08T13:17:39;16.48;;;7.75;;
82292;SDS011;71892;14.836;105.234;2023-08-08T13:20:05;20.25;;;9.15;;
82292;SDS011;71892;14.836;105.234;2023-08-08T13:22:33;18.05;;;7.25;;
82292;SDS011;71892;14.836;105.234;2023-08-08T13:24:59;16.63;;;7.90;;
82292;SDS011;71892;14.836;105.234;2023-08-08T13:27:25;21.50;;;7.97;;
82292;SDS011;71892;14.836;105.234;2023-08-08T13:29:52;18.80;;;8.40;;
82292;SDS011;71892;14.836;105.234;2023-08-08T13:32:18;20.00;;;7.30;;
82292;SDS011;71892;14.836;105.234;2023-08-08T13:34:45;18.65;;;6.60;;
82292;SDS011;71892;14.836;105.234;2023-08-08T13:37:11;14.07;;;6.35;;
82292;SDS011;71892;14.836;105.234;2023-08-08T13:39:37;13.73;;;6.57;;
82292;SDS011;71892;14.836;105.234;2023-08-08T13:42:03;17.02;;;6.82;;
82292;SDS011;71892;14.836;105.234;2023-08-08T13:44:30;16.77;;;6.25;;
82292;SDS011;71892;14.836;105.234;2023-08-08T13:46:56;17.23;;;7.22;;
82292;SDS011;71892;14.836;105.234;2023-08-08T13:49:23;19.90;;;7.90;;
82292;SDS011;71892;14.836;105.234;2023-08-08T13:51:52;13.45;;;6.80;;
82292;SDS011;71892;14.836;105.234;2023-08-08T13:54:19;17.75;;;7.40;;
82292;SDS011;71892;14.836;105.234;2023-08-08T13:56:45;18.15;;;7.13;;
82292;SDS011;71892;14.836;105.234;2023-08-08T13:59:12;17.35;;;6.97;;
82292;SDS011;71892;14.836;105.234;2023-08-08T14:01:39;15.52;;;7.05;;
82292;SDS011;71892;14.836;105.234;2023-08-08T14:04:05;16.27;;;6.53;;
82292;SDS011;71892;14.836;105.234;2023-08-08T14:06:32;16.20;;;6.00;;
82292;SDS011;71892;14.836;105.234;2023-08-08T14:08:58;13.00;;;5.65;;
82292;SDS011;71892;14.836;105.234;2023-08-08T14:11:24;15.15;;;6.00;;
82292;SDS011;71892;14.836;105.234;2023-08-08T14:13:51;13.40;;;7.05;;
82292;SDS011;71892;14.836;105.234;2023-08-08T14:16:17;16.65;;;5.88;;
82292;SDS011;71892;14.836;105.234;2023-08-08T14:18:43;17.98;;;6.18;;